If you wish to contribute or participate in the discussions about articles you are invited to join SKYbrary as a registered user

 Actions

Huesca/Pirineos Airport

From SKYbrary Wiki

LEHC
Airport
ICAO: LEHC – IATA: HSK
Summary
Name Huesca/Pirineos Airport
Region Europe
Territory Spain ES.gif
Location , Aragon
Serving Huesca
Elevation 538.886 m
1,768 ft
1,768 ft538.886 m
Type small airport
Coordinates 42° 4' 51.00" N, 0° 19' 24.00" W
Runways
Designator Length Width Surface ROPS


METAR
Observation LEHC 120730Z AUTO 28015KT 9999 NCD 05/03 Q1012
Station HUESCA-PIRINEOS
Date/Time 12 November 2019 07:30:00
Wind direction 280°
Wind speed 15 kts
Lowest cloud amount no clouds detected
Temperature 5°C
Dew point 3°C
Humidity 86%
QNH 1012 hPa
Weather condition n/a